createdAt,value
2022-10-22T00:00:40.676Z,3.92
2022-10-22T00:03:07.791Z,3.91
2022-10-22T00:05:36.155Z,3.90
2022-10-22T00:08:03.311Z,3.89
2022-10-22T00:10:30.662Z,3.89
2022-10-22T00:12:59.859Z,3.89
2022-10-22T00:15:26.913Z,3.89
2022-10-22T00:17:56.411Z,3.88
2022-10-22T00:20:27.607Z,3.88
2022-10-22T00:30:37.904Z,3.92
2022-10-22T00:33:04.909Z,3.90
2022-10-22T00:35:32.015Z,3.89
2022-10-22T00:37:58.966Z,3.89
2022-10-22T00:40:26.049Z,3.89
2022-10-22T00:42:53.031Z,3.87
2022-10-22T00:45:24.861Z,3.85
2022-10-22T00:48:08.881Z,3.85
2022-10-22T00:50:55.754Z,3.85
2022-10-22T00:53:25.110Z,3.86
2022-10-22T00:55:52.783Z,3.86
2022-10-22T00:58:21.421Z,3.86
2022-10-22T01:00:48.641Z,3.85
2022-10-22T01:03:15.711Z,3.85
2022-10-22T01:05:47.637Z,3.86
2022-10-22T01:08:25.829Z,3.86
2022-10-22T01:10:57.800Z,3.84
2022-10-22T01:13:47.300Z,3.85
2022-10-22T01:16:28.461Z,4.55
2022-10-22T01:19:02.496Z,5.22
2022-10-22T01:21:57.254Z,5.31
2022-10-22T01:24:36.683Z,5.15
2022-10-22T01:27:22.570Z,4.94
2022-10-22T01:29:59.088Z,4.75
2022-10-22T01:32:26.502Z,4.56
2022-10-22T01:35:00.228Z,4.44
2022-10-22T01:37:30.067Z,4.33
2022-10-22T01:40:00.773Z,4.26
2022-10-22T01:42:27.797Z,4.19
2022-10-22T01:44:54.806Z,4.15
2022-10-22T01:47:27.976Z,4.11
2022-10-22T01:50:04.222Z,4.07
2022-10-22T01:52:37.391Z,4.05
2022-10-22T01:55:31.469Z,4.05
2022-10-22T01:58:32.511Z,4.04
2022-10-22T02:01:13.234Z,3.98
2022-10-22T02:04:14.067Z,3.98
2022-10-22T02:06:41.797Z,3.99
2022-10-22T02:09:08.920Z,3.98
2022-10-22T02:11:35.953Z,3.97
2022-10-22T02:14:04.046Z,3.95
2022-10-22T02:16:34.564Z,3.93
2022-10-22T02:19:04.143Z,3.91
2022-10-22T02:21:31.228Z,3.89
2022-10-22T02:23:58.325Z,3.88
2022-10-22T02:26:31.617Z,3.90
2022-10-22T02:29:03.943Z,4.53
2022-10-22T02:31:32.661Z,5.27
2022-10-22T02:34:03.210Z,5.48
2022-10-22T02:36:30.208Z,5.44
2022-10-22T02:38:57.196Z,5.28
2022-10-22T02:41:24.509Z,5.13
2022-10-22T02:43:54.319Z,4.95
2022-10-22T02:46:21.365Z,4.80
2022-10-22T02:48:48.412Z,4.66
2022-10-22T02:51:15.458Z,4.55
2022-10-22T02:53:42.409Z,4.45
2022-10-22T02:56:09.341Z,4.31
2022-10-22T02:58:36.417Z,4.17
2022-10-22T03:01:03.408Z,4.04
2022-10-22T03:03:30.541Z,3.94
2022-10-22T03:05:57.537Z,3.86
2022-10-22T03:08:24.582Z,3.79
2022-10-22T03:10:51.570Z,3.69
2022-10-22T03:13:18.497Z,3.62
2022-10-22T03:15:45.521Z,3.54
2022-10-22T03:18:12.582Z,3.47
2022-10-22T03:20:39.665Z,3.40
2022-10-22T03:23:06.768Z,3.89
2022-10-22T03:25:34.834Z,4.63
2022-10-22T03:28:04.407Z,4.82
2022-10-22T03:30:31.552Z,4.71
2022-10-22T03:32:58.638Z,4.53
2022-10-22T03:35:25.627Z,4.30
2022-10-22T03:37:52.727Z,4.10
2022-10-22T03:40:20.014Z,3.93
2022-10-22T03:42:47.132Z,3.77
2022-10-22T03:45:14.058Z,3.61
2022-10-22T03:47:41.685Z,3.50
2022-10-22T03:50:09.817Z,3.41
2022-10-22T03:52:38.734Z,3.32
2022-10-22T03:55:06.597Z,3.26
2022-10-22T03:57:33.613Z,3.20
2022-10-22T04:00:00.604Z,3.20
2022-10-22T04:02:27.608Z,3.77
2022-10-22T04:04:54.577Z,4.42
2022-10-22T04:07:21.811Z,4.60
2022-10-22T04:09:48.754Z,4.53
2022-10-22T04:12:15.800Z,4.42
2022-10-22T04:14:42.842Z,4.27
2022-10-22T04:17:09.788Z,4.11
2022-10-22T04:19:37.040Z,3.97
2022-10-22T04:22:04.121Z,3.85
2022-10-22T04:24:32.162Z,3.76
2022-10-22T04:26:59.205Z,3.67
2022-10-22T04:29:26.190Z,3.60
2022-10-22T04:31:53.297Z,3.55
2022-10-22T04:34:20.383Z,3.53
2022-10-22T04:36:47.319Z,4.10
2022-10-22T04:39:14.752Z,4.83
2022-10-22T04:41:41.799Z,5.03
2022-10-22T04:44:12.268Z,4.98
2022-10-22T04:46:42.214Z,4.83
2022-10-22T04:49:09.188Z,4.63
2022-10-22T04:51:36.330Z,4.47
2022-10-22T04:54:03.480Z,4.35
2022-10-22T04:56:30.940Z,4.25
2022-10-22T04:59:02.497Z,4.14
2022-10-22T05:01:31.619Z,4.06
2022-10-22T05:04:00.996Z,4.00
2022-10-22T05:06:29.122Z,3.96
2022-10-22T05:08:58.229Z,3.94
2022-10-22T05:11:28.457Z,4.51
2022-10-22T05:13:57.126Z,5.22
2022-10-22T05:16:24.620Z,5.42
2022-10-22T05:18:51.666Z,5.32
2022-10-22T05:21:20.066Z,5.20
2022-10-22T05:23:48.500Z,5.05
2022-10-22T05:26:17.388Z,4.91
2022-10-22T05:28:44.289Z,4.77
2022-10-22T05:31:12.740Z,4.64
2022-10-22T05:33:39.788Z,4.52
2022-10-22T05:36:07.956Z,4.41
2022-10-22T05:38:35.286Z,4.33
2022-10-22T05:41:09.600Z,4.26
2022-10-22T05:43:37.396Z,4.23
2022-10-22T05:46:12.532Z,4.19
2022-10-22T05:48:39.719Z,4.20
2022-10-22T05:51:12.787Z,4.84
2022-10-22T05:53:41.284Z,5.54
2022-10-22T05:56:11.209Z,5.70
2022-10-22T05:58:38.319Z,5.62
2022-10-22T06:01:15.821Z,5.48
2022-10-22T06:03:43.265Z,5.29
2022-10-22T06:06:17.496Z,5.16
2022-10-22T06:08:46.145Z,5.00
2022-10-22T06:11:13.212Z,4.95
2022-10-22T06:13:40.257Z,4.87
2022-10-22T06:16:07.611Z,4.86
2022-10-22T06:18:34.816Z,4.80
2022-10-22T06:21:09.813Z,4.67
2022-10-22T10:24:38.080Z,11.23
2022-10-22T10:27:36.162Z,11.37
2022-10-22T10:30:09.680Z,11.50
2022-10-22T10:32:47.664Z,11.80
2022-10-22T10:35:23.456Z,12.34
2022-10-22T10:38:12.600Z,13.00
2022-10-22T10:40:49.104Z,13.61
2022-10-22T10:43:25.315Z,14.05
2022-10-22T10:46:08.892Z,14.40
2022-10-22T10:48:39.072Z,14.72
2022-10-22T10:51:08.270Z,15.07
2022-10-22T10:53:53.031Z,15.24
2022-10-22T10:56:43.527Z,15.15
2022-10-22T10:59:21.266Z,15.15
2022-10-22T11:02:13.464Z,15.49
2022-10-22T11:04:59.477Z,15.80
2022-10-22T11:07:34.629Z,15.72
2022-10-22T11:10:16.390Z,15.72
2022-10-22T11:12:45.394Z,15.71
2022-10-22T11:15:31.606Z,15.76
2022-10-22T11:18:24.232Z,15.88
2022-10-22T11:20:50.861Z,15.90
2022-10-22T11:23:27.697Z,15.63
2022-10-22T11:25:54.381Z,15.38
2022-10-22T11:28:24.314Z,15.02
2022-10-22T11:30:56.552Z,14.67
2022-10-22T11:33:25.099Z,14.39
2022-10-22T11:35:51.842Z,14.22
2022-10-22T11:38:22.019Z,14.27
2022-10-22T11:41:05.927Z,14.49
2022-10-22T11:43:52.965Z,14.71
2022-10-22T11:46:21.916Z,14.67
2022-10-22T11:49:13.188Z,14.51
2022-10-22T11:51:41.767Z,14.80
2022-10-22T11:54:33.740Z,14.88
2022-10-22T11:57:27.292Z,14.62
2022-10-22T11:59:58.779Z,14.62
2022-10-22T12:02:28.708Z,14.44
2022-10-22T12:05:15.893Z,14.46
2022-10-22T12:07:56.469Z,14.28
2022-10-22T12:10:29.034Z,14.21
2022-10-22T12:12:57.710Z,14.20
2022-10-22T12:15:27.842Z,14.17
2022-10-22T12:17:59.051Z,14.27
2022-10-22T12:20:26.922Z,14.37
2022-10-22T12:22:54.620Z,14.52
2022-10-22T12:25:22.529Z,14.69
2022-10-22T12:27:54.229Z,14.84
2022-10-22T12:30:23.441Z,14.99
2022-10-22T12:32:57.077Z,15.20
2022-10-22T12:35:25.174Z,15.43
2022-10-22T12:38:00.524Z,15.56
2022-10-22T12:40:28.784Z,15.74
2022-10-22T12:42:57.729Z,15.74
2022-10-22T12:45:30.306Z,15.55
2022-10-22T12:48:01.801Z,15.32
2022-10-22T12:50:42.300Z,15.20
2022-10-22T12:53:21.668Z,15.22
2022-10-22T12:55:50.266Z,15.36
2022-10-22T16:58:32.854Z,8.96
2022-10-22T17:01:00.737Z,8.95
2022-10-22T17:03:28.435Z,8.97
2022-10-22T17:05:58.102Z,9.02
2022-10-22T17:08:25.339Z,9.05
2022-10-22T17:10:53.706Z,9.11
2022-10-22T17:13:20.766Z,9.17
2022-10-22T17:15:48.221Z,9.24
2022-10-22T17:18:15.198Z,9.31
2022-10-22T17:20:45.601Z,9.38
2022-10-22T17:23:12.396Z,9.47
2022-10-22T17:25:43.174Z,9.53
2022-10-22T17:28:10.931Z,9.59
2022-10-22T17:30:40.081Z,9.64
2022-10-22T17:33:07.790Z,9.70
2022-10-22T17:52:49.334Z,9.87
2022-10-22T17:55:30.613Z,9.91
2022-10-22T17:57:57.681Z,9.92
2022-10-22T18:00:24.523Z,9.92
2022-10-22T18:02:51.788Z,9.93
2022-10-22T18:05:19.007Z,9.93
2022-10-22T18:07:46.520Z,9.94
2022-10-22T18:10:13.443Z,9.95
2022-10-22T18:12:41.578Z,9.95
2022-10-22T18:15:09.890Z,9.96
2022-10-22T18:17:39.779Z,9.97
2022-10-22T18:20:08.192Z,9.98
2022-10-22T18:22:35.227Z,10.05
2022-10-22T18:25:02.257Z,10.11
2022-10-22T18:27:29.542Z,10.15
2022-10-22T18:29:56.495Z,10.17
2022-10-22T18:32:25.742Z,10.20
2022-10-22T18:34:52.537Z,10.23
2022-10-22T18:37:19.838Z,10.27
2022-10-22T18:39:46.826Z,10.25
2022-10-22T18:44:45.693Z,10.24
2022-10-22T18:47:13.049Z,10.21
2022-10-22T18:49:40.396Z,10.20
2022-10-22T18:52:07.507Z,10.20
2022-10-22T18:54:35.325Z,10.17
2022-10-22T18:57:03.232Z,10.12
2022-10-22T18:59:30.391Z,10.11
2022-10-22T19:01:59.014Z,10.09
2022-10-22T19:04:36.014Z,10.08
2022-10-22T19:07:06.873Z,10.08
2022-10-22T19:09:34.903Z,10.12
2022-10-22T19:12:01.950Z,10.58
2022-10-22T19:14:29.034Z,10.88
2022-10-22T19:16:57.888Z,10.92
2022-10-22T19:19:24.931Z,10.81
2022-10-22T19:21:53.240Z,10.59
2022-10-22T19:24:21.383Z,10.39
2022-10-22T19:26:48.947Z,10.24
2022-10-22T19:29:18.175Z,10.14
2022-10-22T19:31:47.242Z,9.97
2022-10-22T19:34:19.097Z,9.91
2022-10-22T19:36:45.945Z,10.46
2022-10-22T19:39:16.167Z,10.97
2022-10-22T19:41:43.210Z,10.95
2022-10-22T19:44:11.993Z,10.76
2022-10-22T19:46:39.042Z,10.56
2022-10-22T19:49:06.028Z,10.35
2022-10-22T19:51:34.065Z,10.08
2022-10-22T19:54:03.976Z,9.89
2022-10-22T19:56:32.049Z,9.73
2022-10-22T19:58:59.376Z,10.09
2022-10-22T20:01:26.374Z,10.43
2022-10-22T20:03:53.821Z,10.36
2022-10-22T20:06:21.508Z,10.12
2022-10-22T20:08:53.739Z,9.89
2022-10-22T20:11:26.622Z,9.67
2022-10-22T20:13:54.179Z,10.09
2022-10-22T20:16:23.281Z,10.34
2022-10-22T20:18:51.347Z,10.27
2022-10-22T20:21:19.210Z,9.97
2022-10-22T20:23:51.586Z,9.73
2022-10-22T20:26:19.961Z,9.59
2022-10-22T20:28:47.006Z,10.02
2022-10-22T20:31:16.365Z,10.16
2022-10-22T20:33:43.770Z,10.10
2022-10-22T20:36:21.970Z,9.91
2022-10-22T20:38:49.397Z,9.73
2022-10-22T20:41:19.752Z,9.53
2022-10-22T20:43:47.214Z,9.87
2022-10-22T20:46:19.861Z,10.19
2022-10-22T20:48:46.561Z,10.15
2022-10-22T20:51:13.509Z,9.92
2022-10-22T20:53:41.341Z,9.70
2022-10-22T20:56:09.602Z,9.65
2022-10-22T20:58:37.094Z,10.16
2022-10-22T21:01:10.027Z,10.31
2022-10-22T21:03:38.320Z,10.28
2022-10-22T21:06:05.994Z,10.00
2022-10-22T21:08:32.986Z,9.76
2022-10-22T21:10:59.926Z,9.51
2022-10-22T21:13:31.346Z,9.84
2022-10-22T21:16:10.171Z,10.11
2022-10-22T21:18:38.227Z,9.96
2022-10-22T21:21:06.607Z,9.76
2022-10-22T21:23:34.580Z,9.60
2022-10-22T21:26:02.749Z,9.94
2022-10-22T21:28:32.279Z,10.20
2022-10-22T21:30:59.301Z,10.11
2022-10-22T21:33:26.252Z,9.90
2022-10-22T21:35:54.236Z,9.68
2022-10-22T21:38:21.461Z,9.54
2022-10-22T21:40:49.046Z,9.96
2022-10-22T21:43:16.619Z,10.28
2022-10-22T21:45:44.146Z,10.27
2022-10-22T21:48:12.588Z,10.07
2022-10-22T21:50:40.710Z,9.82
2022-10-22T21:53:08.670Z,9.62
2022-10-22T21:55:39.543Z,9.95
2022-10-22T21:58:07.269Z,10.28
2022-10-22T22:00:35.990Z,10.20
2022-10-22T22:03:05.288Z,9.98
2022-10-22T22:05:33.403Z,9.74
2022-10-22T22:08:00.582Z,9.55
2022-10-22T22:10:27.815Z,9.93
2022-10-22T22:12:56.235Z,10.29
2022-10-22T22:15:23.151Z,10.22
2022-10-22T22:17:50.141Z,10.01
2022-10-22T22:20:18.791Z,9.77
2022-10-22T22:22:46.642Z,9.59
2022-10-22T22:25:13.593Z,10.01
2022-10-22T22:27:42.687Z,10.39
2022-10-22T22:30:10.965Z,10.36
2022-10-22T22:32:37.920Z,10.12
2022-10-22T22:35:05.679Z,9.86
2022-10-22T22:37:33.783Z,9.67
2022-10-22T22:40:00.837Z,9.93
2022-10-22T22:42:29.174Z,10.17
2022-10-22T22:44:56.129Z,10.12
2022-10-22T22:47:23.163Z,9.84
2022-10-22T22:49:49.967Z,9.64
2022-10-22T22:52:16.999Z,9.93
2022-10-22T22:54:47.589Z,10.17
2022-10-22T22:57:14.692Z,10.11
2022-10-22T23:24:03.562Z,10.29
2022-10-22T23:26:32.861Z,10.10
2022-10-22T23:29:23.931Z,9.86
2022-10-22T23:31:51.328Z,9.80
2022-10-22T23:34:21.963Z,10.29
2022-10-22T23:36:49.620Z,10.41
2022-10-22T23:39:19.022Z,10.24
2022-10-22T23:41:46.608Z,10.05
2022-10-22T23:44:15.986Z,9.81
2022-10-22T23:46:43.545Z,10.08
2022-10-22T23:49:11.928Z,10.23
2022-10-22T23:51:40.505Z,10.22
2022-10-22T23:54:11.348Z,10.06
2022-10-22T23:56:40.538Z,9.86
2022-10-22T23:59:09.111Z,10.30
